This is the latest recevied weather packets stored in our database for station/object K4HOG. If no packets are shown the sender has not sent any weather packets the latest 10 day(s).
| Time | Temp. | Humidity | Pressure | Rain* | Wind** | Luminosity | Snow |
|---|---|---|---|---|---|---|---|
| 1777219983 | 29.44° C | 60% | 1011.5 hPa | 0 mm | - | 215 W/m² | - |
| 1777219680 | 29.44° C | 60% | 1011.4 hPa | 0 mm | - | 858 W/m² | - |
| 1777219378 | 28.89° C | 64% | 1011.5 hPa | 0 mm | - | 818 W/m² | - |
| 1777219074 | 29.44° C | 61% | 1011.7 hPa | 0 mm | - | 812 W/m² | - |
| 1777218770 | 28.89° C | 62% | 1011.6 hPa | 0 mm | - | 866 W/m² | - |
| 1777218465 | 28.89° C | 63% | 1011.6 hPa | 0 mm | - | 809 W/m² | - |
| 1777218161 | 28.33° C | 64% | 1011.6 hPa | 0 mm | - | 836 W/m² | - |
| 1777217858 | 27.78° C | 65% | 1011.6 hPa | 0 mm | - | 905 W/m² | - |
| 1777217553 | 27.78° C | 66% | 1011.6 hPa | 0 mm | - | 849 W/m² | - |
| 1777217250 | 27.22° C | 68% | 1011.6 hPa | 0 mm | - | 835 W/m² | - |
| 1777216946 | 26.67° C | 71% | 1011.5 hPa | 0 mm | - | 759 W/m² | - |
| 1777216642 | 26.11° C | 73% | 1011.7 hPa | 0 mm | - | 727 W/m² | - |
| 1777216339 | 27.22° C | 72% | 1011.7 hPa | 0 mm | - | 71 W/m² | - |
| 1777216038 | 26.67° C | 76% | 1011.5 hPa | 0 mm | - | 432 W/m² | - |
| 1777215734 | 26.11° C | 77% | 1011.6 hPa | 0 mm | - | 194 W/m² | - |
| 1777215430 | 25.56° C | 80% | 1011.7 hPa | 0 mm | - | 239 W/m² | - |
| 1777215126 | 24.44° C | 83% | 1011.8 hPa | 0 mm | - | 209 W/m² | - |
| 1777214820 | 25° C | 81% | 1012 hPa | 0 mm | - | 93 W/m² | - |
| 1777214520 | 25.56° C | 78% | 1011.7 hPa | 0 mm | - | 59 W/m² | - |
| 1777214215 | 26.67° C | 73% | 1011.9 hPa | 0 mm | - | 108 W/m² | - |
| 1777213914 | 26.11° C | 76% | 1011.6 hPa | 0 mm | - | 184 W/m² | - |
| 1777213609 | 25.56° C | 77% | 1011.6 hPa | 0 mm | - | 227 W/m² | - |
| 1777213306 | 25.56° C | 77% | 1011.7 hPa | 0 mm | - | 202 W/m² | - |
| 1777213002 | 25.56° C | 78% | 1011.5 hPa | 0 mm | - | 167 W/m² | - |
| 1777212700 | 25.56° C | 79% | 1011.7 hPa | 0 mm | - | 111 W/m² | - |
* Rain latest hour (hover to see other rain measurements)
** Current wind speed in m/s (hover to see current wind gust speed)